Time;durP1;ratioP1;P1;durP2;ratioP2;P2;SDS_P1;SDS_P2;PMS_P1;PMS_P2;Temp;Humidity;BMP_temperature;BMP_pressure;BME280_temperature;BME280_humidity;BME280_pressure;Samples;Min_cycle;Max_cycle;Signal;HPM_P1;HPM_P2
2021/09/13 00:01:35;;;;;;;4.20;2.50;;;;;;;15.78;68.27;96839.81;4928941;29;20058;-83
2021/09/13 00:04:05;;;;;;;2.05;1.70;;;;;;;15.75;68.40;96844.72;4929857;29;20142;-83
2021/09/13 00:06:34;;;;;;;4.35;1.92;;;;;;;15.74;68.44;96841.28;4932105;29;20099;-82
2021/09/13 00:09:02;;;;;;;2.67;2.40;;;;;;;15.72;68.29;96838.06;4930138;29;20107;-83
2021/09/13 00:11:30;;;;;;;3.55;2.30;;;;;;;15.69;68.52;96845.50;4928196;29;20506;-83
2021/09/13 00:13:58;;;;;;;2.83;1.88;;;;;;;15.66;68.42;96844.09;4921121;29;20048;-82
2021/09/13 00:16:27;;;;;;;2.72;2.50;;;;;;;15.63;68.53;96847.97;4922979;29;20506;-82
2021/09/13 00:18:55;;;;;;;3.17;2.22;;;;;;;15.62;68.85;96846.34;4923297;29;20455;-83
2021/09/13 00:21:25;;;;;;;2.22;2.00;;;;;;;15.61;68.86;96855.25;4922877;29;20115;-82
2021/09/13 00:23:54;;;;;;;3.80;2.22;;;;;;;15.62;68.75;96856.84;4923325;29;20487;-82
2021/09/13 00:26:22;;;;;;;2.95;2.00;;;;;;;15.62;68.85;96850.78;4922356;29;20084;-83
2021/09/13 00:28:51;;;;;;;2.28;2.08;;;;;;;15.61;69.03;96855.25;4922629;29;20082;-82
2021/09/13 00:31:20;;;;;;;2.83;2.33;;;;;;;15.60;69.02;96848.38;4922644;29;20051;-82
2021/09/13 00:33:48;;;;;;;4.30;2.75;;;;;;;15.58;68.76;96844.34;4923185;29;20544;-82
2021/09/13 00:36:17;;;;;;;2.38;2.17;;;;;;;15.56;68.94;96846.34;4922186;29;20056;-83
2021/09/13 00:38:46;;;;;;;2.80;2.20;;;;;;;15.54;68.88;96848.38;4921275;29;20225;-81
2021/09/13 00:41:14;;;;;;;2.28;2.08;;;;;;;15.50;69.08;96847.19;4912370;29;20044;-82
2021/09/13 00:43:41;;;;;;;2.33;2.13;;;;;;;15.49;69.17;96842.94;4919409;29;20048;-82
2021/09/13 00:46:09;;;;;;;2.33;2.03;;;;;;;15.48;69.25;96842.16;4918845;29;20048;-82
2021/09/13 00:48:37;;;;;;;3.15;2.40;;;;;;;15.48;69.26;96836.88;4920439;29;20421;-82
2021/09/13 00:51:05;;;;;;;3.38;2.42;;;;;;;15.45;69.39;96832.03;4920874;29;20052;-82
2021/09/13 00:53:32;;;;;;;2.40;2.20;;;;;;;15.42;69.43;96835.09;4920265;29;20056;-82
2021/09/13 00:56:02;;;;;;;2.70;2.50;;;;;;;15.38;69.87;96828.63;4920406;29;20056;-82
2021/09/13 00:58:30;;;;;;;2.25;2.05;;;;;;;15.37;70.00;96837.50;4920060;29;20425;-82
2021/09/13 01:00:57;;;;;;;4.80;2.60;;;;;;;15.36;69.95;96835.91;4920630;29;20072;-82
2021/09/13 01:03:25;;;;;;;3.65;2.53;;;;;;;15.38;70.56;96833.88;4920249;29;20063;-82
2021/09/13 01:05:53;;;;;;;4.28;2.50;;;;;;;15.39;70.82;96835.47;4920629;29;20131;-82
2021/09/13 01:08:22;;;;;;;3.33;2.60;;;;;;;15.41;70.30;96836.91;4920520;29;20052;-82
2021/09/13 01:10:51;;;;;;;3.10;2.22;;;;;;;15.43;70.06;96836.69;4920616;29;20482;-82
2021/09/13 01:13:19;;;;;;;3.45;2.35;;;;;;;15.46;69.91;96838.91;4920993;29;20119;-82
2021/09/13 01:15:47;;;;;;;2.35;2.13;;;;;;;15.48;70.03;96834.25;4921989;29;20052;-82
2021/09/13 01:18:15;;;;;;;3.75;2.00;;;;;;;15.50;69.80;96829.56;4922216;29;20517;-83
2021/09/13 01:20:42;;;;;;;2.65;2.25;;;;;;;15.52;69.89;96832.81;4919995;29;20048;-82
2021/09/13 01:23:15;;;;;;;2.35;2.15;;;;;;;15.52;69.86;96835.44;4919952;29;20063;-82
2021/09/13 01:25:43;;;;;;;2.78;2.58;;;;;;;15.52;69.50;96838.06;4919785;29;20495;-82
2021/09/13 01:28:10;;;;;;;2.80;2.30;;;;;;;15.52;69.63;96835.44;4919338;29;20045;-82
2021/09/13 01:30:38;;;;;;;2.55;2.28;;;;;;;15.51;69.53;96838.28;4919263;29;20048;-82
2021/09/13 01:33:06;;;;;;;2.88;2.28;;;;;;;15.51;69.65;96839.09;4919133;29;20060;-82
2021/09/13 01:35:33;;;;;;;2.00;1.90;;;;;;;15.51;69.83;96833.84;4919091;29;20059;-82
2021/09/13 01:38:01;;;;;;;2.20;1.83;;;;;;;15.52;69.66;96843.31;4918742;29;20060;-82
2021/09/13 01:40:30;;;;;;;2.65;2.30;;;;;;;15.54;69.75;96840.50;4918943;29;20067;-82
2021/09/13 01:42:58;;;;;;;2.90;2.10;;;;;;;15.62;69.99;96838.44;4918841;29;20157;-82
2021/09/13 01:45:26;;;;;;;2.92;2.05;;;;;;;15.73;69.50;96837.03;4918857;29;20060;-82
2021/09/13 01:47:54;;;;;;;3.60;2.60;;;;;;;15.80;68.88;96837.00;4918983;29;20076;-82
2021/09/13 01:50:22;;;;;;;2.42;1.70;;;;;;;15.82;69.22;96841.03;4918507;29;20052;-82
2021/09/13 01:52:50;;;;;;;2.63;1.92;;;;;;;15.89;70.05;96835.72;4918346;29;20048;-82
2021/09/13 01:55:17;;;;;;;2.90;2.08;;;;;;;15.98;69.22;96836.31;4918347;29;20064;-82
2021/09/13 01:57:46;;;;;;;2.42;2.22;;;;;;;15.99;68.33;96835.31;4918080;29;20422;-82
2021/09/13 02:00:15;;;;;;;3.67;2.60;;;;;;;15.94;68.25;96833.31;4918036;29;20059;-82
2021/09/13 02:02:42;;;;;;;3.03;2.30;;;;;;;15.89;68.50;96824.41;4917997;29;20076;-82
2021/09/13 02:05:11;;;;;;;4.50;2.55;;;;;;;15.83;68.82;96821.63;4917939;29;20115;-82
2021/09/13 02:07:38;;;;;;;4.03;2.30;;;;;;;15.81;68.74;96812.31;4917905;29;20055;-82
2021/09/13 02:10:07;;;;;;;3.40;2.70;;;;;;;15.76;68.61;96815.56;4917803;29;20060;-82
2021/09/13 02:12:35;;;;;;;2.10;2.00;;;;;;;15.73;69.12;96815.19;4917671;29;20056;-82
2021/09/13 02:15:04;;;;;;;2.45;2.25;;;;;;;15.79;69.92;96816.97;4917565;29;20068;-82
2021/09/13 02:17:32;;;;;;;3.15;2.85;;;;;;;15.88;69.44;96814.91;4917439;29;20052;-82
2021/09/13 02:19:59;;;;;;;3.92;3.00;;;;;;;15.85;68.46;96809.06;4917473;29;20059;-82
2021/09/13 02:22:27;;;;;;;4.53;2.90;;;;;;;15.80;68.45;96810.69;4917357;29;20055;-82
2021/09/13 02:24:54;;;;;;;2.92;2.40;;;;;;;15.76;68.66;96809.50;4917835;29;20056;-82
2021/09/13 02:27:21;;;;;;;2.75;2.55;;;;;;;15.72;68.87;96806.50;4937326;23;20052;-78
2021/09/13 02:29:49;;;;;;;3.35;2.30;;;;;;;15.71;68.80;96809.28;4915508;29;20052;-78
2021/09/13 02:32:18;;;;;;;2.95;2.67;;;;;;;15.65;69.14;96801.22;4915764;29;20072;-77
2021/09/13 02:34:45;;;;;;;2.47;2.22;;;;;;;15.60;69.38;96808.91;4916113;29;20059;-78
2021/09/13 02:37:13;;;;;;;3.70;2.45;;;;;;;15.57;69.56;96811.19;4916494;29;20056;-77
2021/09/13 02:39:40;;;;;;;3.42;2.72;;;;;;;15.55;69.88;96814.00;4915979;29;20044;-78
2021/09/13 02:42:08;;;;;;;2.63;1.98;;;;;;;15.56;70.02;96807.72;4917153;29;20052;-79
2021/09/13 02:44:35;;;;;;;3.00;2.00;;;;;;;15.61;70.27;96807.09;4917326;29;20052;-78
2021/09/13 02:47:03;;;;;;;2.47;2.28;;;;;;;15.61;69.72;96805.28;4917234;29;20048;-79
2021/09/13 02:49:31;;;;;;;2.42;2.10;;;;;;;15.60;69.37;96805.50;4916736;29;20052;-79
2021/09/13 02:51:59;;;;;;;1.80;1.50;;;;;;;15.64;70.66;96806.69;4917357;29;20052;-79
2021/09/13 02:54:26;;;;;;;2.00;1.80;;;;;;;15.74;70.29;96811.53;4916909;29;20557;-79
2021/09/13 02:56:54;;;;;;;3.95;2.22;;;;;;;15.83;69.89;96810.25;4917126;29;20063;-79
2021/09/13 02:59:21;;;;;;;2.28;2.08;;;;;;;15.86;68.99;96805.41;4917300;29;20395;-79
2021/09/13 03:01:49;;;;;;;3.08;2.45;;;;;;;15.84;68.78;96811.88;4917647;29;20067;-79
2021/09/13 03:04:17;;;;;;;2.35;2.15;;;;;;;15.85;70.11;96803.81;4917434;29;20048;-79
2021/09/13 03:06:45;;;;;;;2.22;1.92;;;;;;;15.92;69.69;96798.50;4915951;29;20063;-78
2021/09/13 03:09:13;;;;;;;3.33;2.10;;;;;;;15.96;68.71;96799.69;4915201;29;20107;-78
2021/09/13 03:11:41;;;;;;;3.90;2.97;;;;;;;15.94;68.11;96806.16;4915932;29;20403;-78
2021/09/13 03:14:08;;;;;;;3.17;2.80;;;;;;;15.86;68.26;96804.59;4915927;29;20055;-78
2021/09/13 03:16:35;;;;;;;4.22;2.67;;;;;;;15.88;69.13;96796.50;4915811;29;20052;-78
2021/09/13 03:19:03;;;;;;;4.40;2.40;;;;;;;15.95;68.57;96803.34;4915295;29;20055;-78
2021/09/13 03:21:30;;;;;;;5.18;2.67;;;;;;;16.00;67.74;96803.50;4915605;29;20461;-78
2021/09/13 03:23:59;;;;;;;4.82;2.40;;;;;;;15.96;67.51;96801.50;4915860;29;20052;-78
2021/09/13 03:26:27;;;;;;;3.38;2.50;;;;;;;15.90;67.60;96810.25;4916240;29;20062;-79
2021/09/13 03:28:54;;;;;;;4.53;2.30;;;;;;;15.83;67.72;96805.00;4915622;29;20052;-78
2021/09/13 03:31:22;;;;;;;9.25;3.60;;;;;;;15.76;68.32;96798.97;4915814;29;20058;-77
2021/09/13 03:33:49;;;;;;;2.83;2.20;;;;;;;15.74;68.67;96806.25;4927662;29;20060;-79
2021/09/13 03:36:17;;;;;;;3.22;2.13;;;;;;;15.69;68.73;96809.50;4930159;29;20124;-79
2021/09/13 03:38:44;;;;;;;2.92;2.60;;;;;;;15.65;68.65;96803.84;4929496;29;20052;-79
2021/09/13 03:41:13;;;;;;;5.10;2.40;;;;;;;15.62;68.62;96804.25;4925858;29;20048;-78
2021/09/13 03:43:40;;;;;;;4.63;2.67;;;;;;;15.60;68.75;96805.50;4915516;29;20059;-78
2021/09/13 03:46:08;;;;;;;3.17;2.88;;;;;;;15.56;69.04;96805.09;4918375;29;20052;-78
2021/09/13 03:48:35;;;;;;;3.50;2.75;;;;;;;15.53;69.00;96800.25;4918516;29;20059;-78
2021/09/13 03:51:03;;;;;;;2.60;2.40;;;;;;;15.50;69.18;96802.47;4919111;29;20075;-78
2021/09/13 03:53:31;;;;;;;4.25;2.50;;;;;;;15.49;69.47;96799.06;4919113;29;20060;-78
2021/09/13 03:55:59;;;;;;;8.93;2.95;;;;;;;15.47;69.18;96798.44;4918894;29;20061;-78
2021/09/13 03:58:27;;;;;;;4.10;2.38;;;;;;;15.44;69.40;96798.88;4918446;29;20059;-77
2021/09/13 04:00:55;;;;;;;4.00;2.25;;;;;;;15.45;69.66;96795.22;4918798;29;20048;-78
2021/09/13 04:03:27;;;;;;;2.22;1.95;;;;;;;15.55;71.27;96797.44;4918714;29;20574;-78
2021/09/13 04:05:57;;;;;;;4.25;2.28;;;;;;;15.60;69.77;96801.03;4919265;29;20059;-78
2021/09/13 04:08:41;;;;;;;2.80;2.42;;;;;;;15.59;69.07;96799.44;4918487;29;20048;-78
2021/09/13 04:11:20;;;;;;;2.63;2.17;;;;;;;15.57;69.43;96793.56;4918805;29;20056;-78
2021/09/13 04:13:49;;;;;;;3.45;2.58;;;;;;;15.56;68.96;96805.09;4918717;29;20503;-78
2021/09/13 04:16:16;;;;;;;2.80;2.45;;;;;;;15.53;68.98;96789.75;4918654;29;20059;-78
2021/09/13 04:18:44;;;;;;;5.95;3.03;;;;;;;15.48;69.19;96801.88;4918288;29;20486;-78
2021/09/13 04:21:13;;;;;;;3.42;2.40;;;;;;;15.45;69.32;96800.47;4918535;29;20108;-78
2021/09/13 04:23:40;;;;;;;3.97;2.58;;;;;;;15.41;69.63;96797.47;4918377;29;20430;-78
2021/09/13 04:26:08;;;;;;;2.80;2.33;;;;;;;15.42;69.83;96798.28;4918263;29;20048;-78
2021/09/13 04:28:35;;;;;;;4.13;3.03;;;;;;;15.47;69.78;96795.81;4917974;29;20056;-77
2021/09/13 04:31:04;;;;;;;3.08;2.40;;;;;;;15.52;70.16;96803.09;4918329;29;20469;-78
2021/09/13 04:33:31;;;;;;;3.30;3.00;;;;;;;15.53;69.53;96792.38;4918362;29;20087;-78
2021/09/13 04:35:59;;;;;;;3.22;2.35;;;;;;;15.56;70.23;96784.06;4918468;29;20059;-78
2021/09/13 04:38:26;;;;;;;3.03;2.80;;;;;;;15.61;69.28;96786.88;4917772;29;20450;-78
2021/09/13 04:40:54;;;;;;;2.88;2.50;;;;;;;15.59;68.97;96793.34;4918400;29;20044;-78
2021/09/13 04:43:21;;;;;;;3.03;2.47;;;;;;;15.56;69.66;96784.06;4918003;29;20506;-78
2021/09/13 04:45:49;;;;;;;4.57;3.03;;;;;;;15.54;69.03;96786.09;4918144;29;20048;-78
2021/09/13 04:48:18;;;;;;;4.13;3.30;;;;;;;15.48;69.28;96781.69;4918254;29;20066;-78
2021/09/13 04:50:45;;;;;;;3.75;2.63;;;;;;;15.46;69.48;96783.72;4917851;29;20511;-77
2021/09/13 04:53:13;;;;;;;4.18;3.13;;;;;;;15.41;69.53;96781.72;4917806;29;20064;-78
2021/09/13 04:55:40;;;;;;;4.00;3.53;;;;;;;15.37;69.51;96777.03;4917741;29;20056;-78
2021/09/13 04:58:08;;;;;;;4.60;3.28;;;;;;;15.33;69.69;96775.88;4917759;29;20056;-78
2021/09/13 05:00:35;;;;;;;4.28;3.13;;;;;;;15.32;69.64;96776.88;4917646;29;20067;-77
2021/09/13 05:03:03;;;;;;;3.75;3.45;;;;;;;15.27;69.67;96771.44;4917761;29;20099;-78
2021/09/13 05:05:32;;;;;;;6.93;3.90;;;;;;;15.22;70.00;96772.88;4917854;29;20090;-78
2021/09/13 05:08:00;;;;;;;3.65;3.35;;;;;;;15.19;70.18;96773.25;4917636;29;20052;-78
2021/09/13 05:10:28;;;;;;;5.30;3.67;;;;;;;15.17;70.27;96775.28;4917454;29;20052;-78
2021/09/13 05:12:55;;;;;;;5.13;3.58;;;;;;;15.15;70.55;96773.88;4917587;29;20522;-78
2021/09/13 05:15:23;;;;;;;4.28;3.88;;;;;;;15.14;70.60;96774.91;4918241;29;20067;-77
2021/09/13 05:17:50;;;;;;;5.10;4.20;;;;;;;15.13;70.82;96774.09;4917742;29;20060;-78
2021/09/13 05:20:18;;;;;;;5.47;3.60;;;;;;;15.13;71.05;96773.28;4917340;29;20052;-78
2021/09/13 05:22:47;;;;;;;5.53;4.20;;;;;;;15.12;71.02;96777.72;4917667;29;20052;-79
2021/09/13 05:25:15;;;;;;;4.10;3.28;;;;;;;15.17;71.40;96780.53;4917837;29;20403;-78
2021/09/13 05:27:42;;;;;;;8.80;3.63;;;;;;;15.25;71.30;96788.19;4917337;29;20071;-78
2021/09/13 05:30:11;;;;;;;7.55;3.85;;;;;;;15.35;71.59;96789.59;4917985;29;20059;-80
2021/09/13 05:32:39;;;;;;;5.72;3.53;;;;;;;15.46;71.95;96786.34;4918689;29;20060;-79
2021/09/13 05:35:07;;;;;;;6.07;3.47;;;;;;;15.56;71.49;96789.31;4918822;29;20056;-80
2021/09/13 05:37:35;;;;;;;8.50;3.90;;;;;;;15.65;71.96;96795.97;4918323;29;20047;-81
2021/09/13 05:40:06;;;;;;;4.22;3.75;;;;;;;15.72;71.00;96798.59;4918199;29;20052;-81
2021/09/13 05:42:48;;;;;;;7.78;3.67;;;;;;;15.79;71.31;96794.13;4918450;29;20056;-80
2021/09/13 05:45:42;;;;;;;3.75;3.05;;;;;;;15.87;70.52;96800.94;4919455;29;20044;-80
2021/09/13 05:48:10;;;;;;;5.10;4.00;;;;;;;15.90;70.94;96800.53;4937254;29;20048;-80
2021/09/13 05:50:38;;;;;;;4.50;3.33;;;;;;;15.98;71.08;96802.94;4936756;29;20054;-79
2021/09/13 05:53:05;;;;;;;3.72;3.42;;;;;;;16.05;70.33;96798.44;4936922;29;20050;-80
2021/09/13 05:55:42;;;;;;;6.03;3.47;;;;;;;16.10;70.45;96804.88;4924784;29;20058;-80
2021/09/13 05:58:10;;;;;;;4.50;3.13;;;;;;;16.17;69.65;96805.66;4940279;28;20100;-80
2021/09/13 06:00:40;;;;;;;6.82;3.47;;;;;;;16.22;69.14;96808.44;4938606;28;20036;-80
2021/09/13 06:05:50;;;;;;;8.63;4.45;;;;;;;16.30;68.14;96816.09;5412323;23;20096;-80
2021/09/13 06:08:18;;;;;;;4.93;4.13;;;;;;;16.28;67.62;96808.38;4917963;29;20430;-80
2021/09/13 06:10:49;;;;;;;5.32;3.97;;;;;;;16.30;67.94;96810.81;4920768;29;20048;-80
2021/09/13 06:13:32;;;;;;;5.45;4.00;;;;;;;16.38;68.19;96812.41;4918469;29;20557;-81
2021/09/13 06:16:02;;;;;;;6.53;4.03;;;;;;;16.42;67.88;96813.56;4918107;29;20055;-80
2021/09/13 06:24:21;;;;;;;6.72;4.28;;;;;;;16.48;68.91;96816.16;4939669;29;20059;-81
2021/09/13 06:26:55;;;;;;;7.18;4.25;;;;;;;16.52;67.97;96818.38;4916661;29;20044;-80
2021/09/13 06:29:22;;;;;;;10.35;4.38;;;;;;;16.57;67.80;96821.16;4900618;29;20056;-79
2021/09/13 06:31:50;;;;;;;8.65;3.78;;;;;;;16.61;67.64;96817.88;4900531;29;20055;-80
2021/09/13 06:34:18;;;;;;;6.72;4.47;;;;;;;16.65;67.59;96816.44;4915077;29;20060;-80
2021/09/13 06:36:46;;;;;;;9.95;4.75;;;;;;;16.71;67.56;96820.06;4915476;29;20059;-80
2021/09/13 06:39:14;;;;;;;7.60;4.10;;;;;;;16.76;67.35;96809.66;4903592;29;20450;-80
2021/09/13 06:41:41;;;;;;;6.55;4.80;;;;;;;16.81;67.17;96819.59;4902061;29;20055;-80
2021/09/13 06:44:11;;;;;;;6.82;4.55;;;;;;;16.83;67.12;96818.34;4898672;29;20056;-80
2021/09/13 06:46:45;;;;;;;5.35;3.75;;;;;;;16.87;67.28;96810.81;4912895;29;20052;-80
2021/09/13 06:49:18;;;;;;;7.13;4.05;;;;;;;16.89;67.31;96814.84;4915489;29;20060;-80
2021/09/13 06:51:46;;;;;;;5.35;3.83;;;;;;;16.92;67.36;96810.97;4907600;29;20048;-80
2021/09/13 06:54:14;;;;;;;5.13;3.78;;;;;;;16.95;67.67;96820.28;4905566;29;20480;-80
2021/09/13 06:56:42;;;;;;;5.53;4.25;;;;;;;17.00;67.27;96830.97;4903709;29;20567;-80
2021/09/13 06:59:12;;;;;;;4.10;3.70;;;;;;;17.04;67.80;96832.16;4917165;29;20121;-80
2021/09/13 07:01:41;;;;;;;4.28;3.85;;;;;;;17.08;67.50;96828.06;4904668;29;20056;-80
2021/09/13 07:04:09;;;;;;;10.13;4.68;;;;;;;17.10;67.33;96831.31;4902704;29;20117;-80
2021/09/13 07:06:38;;;;;;;4.45;3.83;;;;;;;17.15;67.30;96834.09;4906062;29;20163;-80
2021/09/13 07:09:07;;;;;;;8.60;4.57;;;;;;;17.18;67.21;96844.19;4909748;29;20087;-80
2021/09/13 07:12:05;;;;;;;10.13;4.18;;;;;;;17.24;67.34;96838.03;4916051;29;20044;-81
2021/09/13 07:21:05;;;;;;;7.20;4.32;;;;;;;17.35;67.74;96841.00;5905804;23;20124;-82
2021/09/13 07:23:33;;;;;;;7.20;4.43;;;;;;;17.38;67.59;96837.91;4963295;28;20047;-80
2021/09/13 07:26:01;;;;;;;6.07;4.15;;;;;;;17.41;67.41;96840.13;4964221;28;20052;-81
2021/09/13 07:34:43;;;;;;;7.75;4.53;;;;;;;17.50;68.52;96846.72;4963257;28;20047;-81
2021/09/13 07:37:11;;;;;;;7.97;4.93;;;;;;;17.54;67.82;96849.72;4958361;28;20055;-80
2021/09/13 07:39:39;;;;;;;15.15;5.57;;;;;;;17.56;67.65;96851.13;4955044;29;20056;-80
2021/09/13 07:42:07;;;;;;;15.57;5.40;;;;;;;17.55;66.94;96851.31;4960628;29;20104;-80
2021/09/13 07:44:36;;;;;;;10.02;4.68;;;;;;;17.54;67.48;96857.63;4962433;28;20042;-80
2021/09/13 07:51:01;;;;;;;10.50;4.25;;;;;;;17.59;68.11;96865.69;4961237;28;20059;-80
2021/09/13 07:53:36;;;;;;;15.60;4.80;;;;;;;17.59;67.29;96865.69;4962946;28;20043;-82
2021/09/13 07:59:05;;;;;;;10.45;4.63;;;;;;;17.64;67.46;96864.00;4951563;28;20063;-81
2021/09/13 08:01:34;;;;;;;12.07;4.55;;;;;;;17.71;67.70;96864.75;4956869;28;20075;-81
2021/09/13 08:04:35;;;;;;;14.43;4.53;;;;;;;17.88;68.14;96867.59;4943262;29;20083;-82
2021/09/13 08:07:45;;;;;;;8.43;4.30;;;;;;;18.14;67.76;96868.31;4933492;29;20067;-80
2021/09/13 08:10:15;;;;;;;7.70;3.92;;;;;;;18.37;67.73;96867.59;4925795;29;20056;-80
2021/09/13 08:12:43;;;;;;;4.70;4.15;;;;;;;18.62;67.71;96864.78;4936386;29;20039;-81
2021/09/13 08:15:12;;;;;;;15.25;4.93;;;;;;;18.87;66.73;96872.59;4938969;29;20036;-80
2021/09/13 08:17:40;;;;;;;9.05;4.55;;;;;;;19.11;66.91;96878.69;4932624;29;20192;-78
2021/09/13 08:20:10;;;;;;;5.00;3.70;;;;;;;19.35;66.86;96874.22;4931469;29;20048;-77
2021/09/13 08:22:38;;;;;;;4.15;3.55;;;;;;;19.60;65.62;96881.09;4946703;29;20062;-83
2021/09/13 08:25:08;;;;;;;4.88;4.15;;;;;;;19.81;64.68;96870.94;4951155;29;20067;-83
2021/09/13 08:27:37;;;;;;;6.95;3.80;;;;;;;20.03;63.62;96879.88;4966296;23;20063;-78
2021/09/13 08:30:05;;;;;;;5.65;4.22;;;;;;;20.27;63.17;96875.31;4932235;29;20056;-82
2021/09/13 08:32:33;;;;;;;6.47;3.47;;;;;;;20.50;63.61;96874.38;4938183;29;20052;-82
2021/09/13 08:35:01;;;;;;;5.30;3.42;;;;;;;20.74;61.88;96874.28;4939433;29;20055;-81
2021/09/13 08:37:29;;;;;;;3.85;3.47;;;;;;;20.99;60.91;96874.72;4941886;29;20040;-80
2021/09/13 08:39:58;;;;;;;5.28;3.30;;;;;;;21.25;60.69;96876.94;4922970;29;20063;-81
2021/09/13 08:42:35;;;;;;;3.13;2.17;;;;;;;21.52;56.22;96882.41;4923173;29;20040;-81
2021/09/13 08:45:04;;;;;;;3.03;1.80;;;;;;;21.77;55.33;96877.41;4923710;29;20056;-82
2021/09/13 08:47:35;;;;;;;2.45;2.25;;;;;;;22.04;54.12;96881.19;4920942;29;20057;-81
2021/09/13 08:50:11;;;;;;;2.60;1.90;;;;;;;22.32;53.78;96877.53;4917712;29;20043;-81
2021/09/13 08:52:38;;;;;;;3.33;2.28;;;;;;;22.56;52.44;96886.03;4923325;29;20044;-81
2021/09/13 08:55:07;;;;;;;2.78;2.20;;;;;;;22.81;51.38;96880.16;4924068;29;20056;-82
2021/09/13 08:57:38;;;;;;;2.30;2.10;;;;;;;23.07;50.54;96886.50;4923326;29;20048;-81
2021/09/13 09:00:07;;;;;;;1.85;1.70;;;;;;;23.31;50.50;96883.47;4923074;29;20064;-82
2021/09/13 09:02:35;;;;;;;2.75;1.95;;;;;;;23.51;48.94;96883.59;5061484;23;20042;-79
2021/09/13 09:05:05;;;;;;;2.70;1.95;;;;;;;23.75;49.44;96878.69;4960204;29;20079;-81
2021/09/13 09:07:49;;;;;;;2.97;2.05;;;;;;;24.18;48.11;96887.41;5418701;23;20040;-81
2021/09/13 09:10:23;;;;;;;1.60;1.50;;;;;;;24.62;48.07;96887.00;4942048;29;20071;-80
2021/09/13 09:18:13;;;;;;;6.78;2.50;;;;;;;25.95;44.12;96888.75;5153945;23;20090;-80
2021/09/13 09:23:13;;;;;;;5.95;1.83;;;;;;;26.74;42.38;96885.41;4806722;23;20247;-79
2021/09/13 09:25:41;;;;;;;3.95;1.52;;;;;;;27.09;42.62;96885.13;4980838;28;20122;-82
2021/09/13 09:28:18;;;;;;;2.90;1.88;;;;;;;27.42;40.70;96889.94;4981028;28;20095;-82
2021/09/13 09:30:49;;;;;;;3.22;1.80;;;;;;;27.70;39.41;96878.41;5064735;23;20066;-80
2021/09/13 09:33:22;;;;;;;2.70;1.80;;;;;;;28.06;39.09;96882.56;4962115;28;20039;-80
2021/09/13 09:35:53;;;;;;;3.85;1.90;;;;;;;28.35;39.35;96877.88;4961372;28;20035;-80
2021/09/13 09:38:36;;;;;;;2.25;1.73;;;;;;;28.59;37.84;96879.72;4961383;28;20107;-80
2021/09/13 09:41:07;;;;;;;4.93;1.70;;;;;;;28.75;37.44;96883.78;4961362;28;20048;-80
2021/09/13 09:43:56;;;;;;;4.90;2.22;;;;;;;28.73;37.43;96877.91;4961531;28;20047;-80
2021/09/13 09:46:25;;;;;;;2.70;1.70;;;;;;;28.79;38.28;96883.19;4961302;28;20043;-80
2021/09/13 09:49:05;;;;;;;2.05;1.30;;;;;;;28.86;37.12;96878.22;4961288;28;20099;-80
2021/09/13 09:51:35;;;;;;;3.97;1.67;;;;;;;28.90;37.83;96879.25;4961674;28;20058;-80
2021/09/13 09:54:12;;;;;;;3.55;2.03;;;;;;;28.98;37.35;96880.47;4961425;28;20046;-81
2021/09/13 09:56:42;;;;;;;3.13;1.90;;;;;;;29.12;37.03;96871.38;4961398;28;20063;-80
2021/09/13 09:59:12;;;;;;;3.88;1.88;;;;;;;29.29;37.00;96880.78;4959289;28;20032;-80
2021/09/13 10:01:42;;;;;;;3.17;1.45;;;;;;;29.45;37.77;96874.03;4960880;28;20040;-80
2021/09/13 10:04:18;;;;;;;2.88;1.35;;;;;;;29.63;37.89;96872.38;4960960;28;20063;-80
2021/09/13 10:06:47;;;;;;;4.00;2.60;;;;;;;29.83;36.60;96865.03;4963588;28;20101;-80
2021/09/13 10:09:16;;;;;;;2.42;1.63;;;;;;;29.93;36.94;96864.81;4979479;28;20047;-80
2021/09/13 10:11:45;;;;;;;2.90;1.60;;;;;;;29.98;36.60;96864.72;4979635;28;20095;-80
2021/09/13 10:14:15;;;;;;;5.53;2.13;;;;;;;30.07;36.49;96862.91;4958042;28;20036;-79
2021/09/13 10:16:44;;;;;;;2.42;1.98;;;;;;;30.15;35.89;96856.81;4944142;29;20049;-77
2021/09/13 10:19:19;;;;;;;3.83;1.75;;;;;;;30.22;36.91;96859.09;4959779;28;20047;-79
2021/09/13 10:21:47;;;;;;;2.88;1.52;;;;;;;30.29;35.98;96856.03;4964591;28;20042;-78
2021/09/13 10:24:18;;;;;;;2.30;1.88;;;;;;;30.23;35.13;96847.22;4958929;29;20043;-79
2021/09/13 10:26:48;;;;;;;5.90;2.03;;;;;;;30.10;35.66;96848.06;4957695;29;20050;-79
2021/09/13 10:29:18;;;;;;;4.32;1.65;;;;;;;29.98;36.11;96843.19;4955470;29;20111;-80
2021/09/13 10:32:05;;;;;;;3.08;1.35;;;;;;;29.83;37.34;96852.38;4942181;29;20072;-79
2021/09/13 10:34:36;;;;;;;4.50;2.40;;;;;;;29.59;35.98;96841.78;4939618;29;20064;-79
2021/09/13 10:37:15;;;;;;;3.05;2.20;;;;;;;29.31;37.26;96843.66;4964592;28;20051;-79
2021/09/13 10:39:55;;;;;;;4.00;2.40;;;;;;;29.02;36.78;96844.69;4972553;28;20065;-80
2021/09/13 10:42:37;;;;;;;4.13;2.20;;;;;;;28.76;37.88;96842.41;4976308;28;20055;-79
2021/09/13 10:45:11;;;;;;;2.88;2.22;;;;;;;28.96;37.76;96840.47;4975187;28;20055;-79
2021/09/13 10:47:41;;;;;;;3.20;1.92;;;;;;;29.37;37.35;96831.72;4954789;29;20056;-79
2021/09/13 10:50:22;;;;;;;3.55;2.15;;;;;;;29.73;36.80;96839.13;4938559;29;20052;-79
2021/09/13 10:52:51;;;;;;;1.77;1.67;;;;;;;30.02;36.61;96836.09;4935882;29;20048;-78
2021/09/13 10:55:24;;;;;;;3.42;2.25;;;;;;;30.38;36.47;96829.97;4935862;29;20043;-79
2021/09/13 10:57:56;;;;;;;2.25;2.05;;;;;;;30.81;34.02;96832.19;4932463;29;20068;-80
2021/09/13 11:01:02;;;;;;;2.33;1.80;;;;;;;31.21;34.55;96833.06;4928314;29;20052;-78
2021/09/13 11:03:32;;;;;;;2.08;1.88;;;;;;;31.55;34.12;96823.59;4922667;29;20055;-80
2021/09/13 11:06:20;;;;;;;3.90;1.60;;;;;;;31.49;34.38;96822.13;4931063;29;20074;-79
2021/09/13 11:08:49;;;;;;;3.33;1.77;;;;;;;31.48;33.53;96817.84;4933434;29;20137;-79
2021/09/13 11:11:19;;;;;;;2.15;1.77;;;;;;;31.60;33.03;96815.34;4933874;29;20111;-80
2021/09/13 11:13:55;;;;;;;4.88;2.15;;;;;;;31.61;32.30;96824.22;4926357;29;20048;-80
2021/09/13 11:16:22;;;;;;;3.38;1.85;;;;;;;31.21;32.70;96811.50;4930255;29;20079;-80
2021/09/13 11:18:50;;;;;;;2.85;2.00;;;;;;;30.84;34.34;96820.78;4926892;29;20076;-80
2021/09/13 11:21:21;;;;;;;1.70;1.60;;;;;;;30.63;33.68;96809.72;4938856;29;20502;-80
2021/09/13 11:23:56;;;;;;;2.67;2.17;;;;;;;30.27;34.38;96804.38;4950750;29;20060;-79
2021/09/13 11:26:30;;;;;;;2.55;2.35;;;;;;;30.07;34.91;96802.94;4946771;29;20051;-79
2021/09/13 11:28:59;;;;;;;2.15;1.95;;;;;;;30.05;35.41;96797.84;4940170;29;20048;-79
2021/09/13 11:31:34;;;;;;;3.53;2.10;;;;;;;29.91;35.74;96797.88;4942492;29;20055;-80
2021/09/13 11:34:04;;;;;;;3.53;2.00;;;;;;;29.78;35.98;96801.38;4944571;29;20446;-79
2021/09/13 11:36:33;;;;;;;4.28;1.90;;;;;;;29.74;35.71;96808.47;4946315;29;20052;-80
2021/09/13 11:39:06;;;;;;;2.35;2.03;;;;;;;29.76;36.35;96806.28;4942413;29;20056;-79
2021/09/13 11:41:35;;;;;;;2.13;2.00;;;;;;;29.78;35.60;96806.75;4935579;29;20056;-79
2021/09/13 11:44:06;;;;;;;3.25;2.40;;;;;;;29.60;35.48;96796.88;4937621;29;20139;-77
2021/09/13 11:46:51;;;;;;;1.63;1.53;;;;;;;29.26;36.30;96796.19;4936800;29;20097;-79
2021/09/13 11:49:24;;;;;;;1.70;1.55;;;;;;;29.14;36.79;96799.34;4939717;29;20043;-78
2021/09/13 11:52:15;;;;;;;2.25;1.70;;;;;;;28.99;36.90;96786.19;4939837;29;20048;-79
2021/09/13 11:54:52;;;;;;;1.88;1.73;;;;;;;28.88;35.89;96798.97;4939528;29;20079;-80
2021/09/13 11:57:32;;;;;;;2.58;2.08;;;;;;;28.71;37.09;96791.50;4938176;29;20056;-80
2021/09/13 12:00:03;;;;;;;2.28;2.08;;;;;;;28.52;36.53;96790.75;4935616;29;20119;-80
2021/09/13 12:02:32;;;;;;;1.77;1.67;;;;;;;28.41;36.86;96789.28;4931421;29;20056;-80
2021/09/13 12:05:06;;;;;;;2.15;1.95;;;;;;;28.31;37.52;96790.22;4928618;29;20854;-79
2021/09/13 12:07:35;;;;;;;2.00;1.80;;;;;;;28.15;38.26;96789.66;4936741;29;20046;-79
2021/09/13 12:10:05;;;;;;;2.85;1.80;;;;;;;28.00;38.76;96779.16;4934607;29;20052;-79
2021/09/13 12:12:34;;;;;;;2.10;1.90;;;;;;;27.85;37.80;96783.63;4937136;29;20048;-80
2021/09/13 12:15:07;;;;;;;2.40;2.20;;;;;;;27.70;37.93;96770.38;4935605;29;20062;-79
2021/09/13 12:17:38;;;;;;;3.20;1.88;;;;;;;27.55;38.03;96768.72;4933384;29;20056;-79
2021/09/13 12:20:18;;;;;;;1.92;1.83;;;;;;;27.42;39.57;96769.38;4928468;29;20130;-78
2021/09/13 12:22:48;;;;;;;3.75;2.17;;;;;;;27.30;40.40;96775.94;4948725;29;20095;-79
2021/09/13 12:25:18;;;;;;;2.80;2.35;;;;;;;27.17;40.60;96778.50;4958918;29;20052;-80